Time;durP1;ratioP1;P1;durP2;ratioP2;P2;SDS_P1;SDS_P2;PMS_P1;PMS_P2;Temp;Humidity;BMP_temperature;BMP_pressure;BME280_temperature;BME280_humidity;BME280_pressure;Samples;Min_cycle;Max_cycle;Signal;HPM_P1;HPM_P2
2022/05/22 00:00:13;;;;;;;11.32;8.07;;;9.60;99.90;;;;;;5064418;28;20339;-50
2022/05/22 00:02:40;;;;;;;12.63;8.23;;;9.60;99.90;;;;;;5082981;28;20059;-50
2022/05/22 00:05:08;;;;;;;17.85;9.00;;;9.60;99.90;;;;;;5076412;28;20631;-52
2022/05/22 00:07:33;;;;;;;14.13;9.88;;;9.60;99.90;;;;;;5103683;27;20059;-48
2022/05/22 00:10:01;;;;;;;15.63;10.55;;;9.50;99.90;;;;;;5104824;28;20054;-50
2022/05/22 00:12:27;;;;;;;14.38;10.05;;;9.50;99.90;;;;;;5086933;28;20063;-55
2022/05/22 00:14:52;;;;;;;7.38;5.45;;;9.50;99.90;;;;;;5099794;28;20063;-54
2022/05/22 00:17:19;;;;;;;9.15;6.18;;;9.40;99.90;;;;;;5101927;28;20040;-50
2022/05/22 00:19:44;;;;;;;6.03;5.13;;;9.40;99.90;;;;;;5102750;28;20051;-54
2022/05/22 00:22:10;;;;;;;6.15;5.22;;;9.40;99.90;;;;;;5103371;28;20388;-55
2022/05/22 00:24:36;;;;;;;8.32;5.68;;;9.30;99.90;;;;;;5103449;28;20078;-51
2022/05/22 00:27:04;;;;;;;8.38;5.53;;;9.30;99.90;;;;;;5101461;28;20050;-50
2022/05/22 00:29:30;;;;;;;9.52;5.57;;;9.30;99.90;;;;;;5102265;28;20130;-54
2022/05/22 00:31:57;;;;;;;8.32;5.85;;;9.20;99.90;;;;;;5102488;28;20050;-52
2022/05/22 00:34:24;;;;;;;12.98;6.60;;;9.20;99.90;;;;;;5100157;28;20052;-42
2022/05/22 00:36:50;;;;;;;10.68;7.60;;;9.20;99.90;;;;;;5084605;28;20553;-51
2022/05/22 00:39:15;;;;;;;11.43;8.55;;;9.20;99.90;;;;;;5089179;28;20061;-51
2022/05/22 00:41:48;;;;;;;12.15;8.73;;;9.30;99.90;;;;;;5101805;28;20141;-50
2022/05/22 00:44:15;;;;;;;13.00;8.32;;;9.30;99.90;;;;;;5084691;28;20466;-53
2022/05/22 00:46:40;;;;;;;14.75;8.05;;;9.30;99.90;;;;;;5100631;28;20047;-55
2022/05/22 00:49:09;;;;;;;11.52;8.25;;;9.40;99.90;;;;;;5101386;28;20039;-55
2022/05/22 00:52:00;;;;;;;9.93;7.20;;;9.30;99.90;;;;;;5102230;28;20047;-49
2022/05/22 00:54:38;;;;;;;12.57;7.40;;;9.30;99.90;;;;;;5128272;27;20055;-54
2022/05/22 00:57:09;;;;;;;10.57;6.00;;;9.30;99.90;;;;;;5102089;28;20361;-54
2022/05/22 00:59:40;;;;;;;9.93;6.70;;;9.20;99.90;;;;;;5102426;28;20454;-42
2022/05/22 01:02:06;;;;;;;9.75;6.72;;;9.20;99.90;;;;;;5102053;28;20070;-52
2022/05/22 01:04:34;;;;;;;11.35;7.55;;;9.20;99.90;;;;;;5100104;28;20055;-53
2022/05/22 01:07:04;;;;;;;16.10;6.97;;;9.10;99.90;;;;;;5102067;28;20078;-51
2022/05/22 01:09:29;;;;;;;13.60;8.15;;;9.10;99.90;;;;;;5082773;28;20051;-52
2022/05/22 01:12:00;;;;;;;13.23;7.85;;;9.10;99.90;;;;;;5071134;28;20468;-49
2022/05/22 01:14:28;;;;;;;12.30;8.07;;;9.10;99.90;;;;;;5102261;27;20047;-47
2022/05/22 01:16:53;;;;;;;11.38;7.63;;;9.10;99.90;;;;;;5102027;28;20058;-51
2022/05/22 01:19:23;;;;;;;11.20;7.68;;;9.10;99.90;;;;;;5083199;28;20055;-49
2022/05/22 01:21:54;;;;;;;14.45;8.65;;;9.10;99.90;;;;;;5091935;28;20051;-55
2022/05/22 01:24:22;;;;;;;10.40;7.47;;;9.00;99.90;;;;;;5105602;28;20103;-52
2022/05/22 01:26:49;;;;;;;12.95;8.85;;;9.00;99.90;;;;;;5083761;28;20825;-54
2022/05/22 01:29:18;;;;;;;14.48;9.30;;;9.00;99.90;;;;;;5101906;28;20473;-50
2022/05/22 01:31:44;;;;;;;13.57;8.45;;;9.00;99.90;;;;;;5101464;28;20123;-51
2022/05/22 01:34:11;;;;;;;15.52;9.27;;;8.90;99.90;;;;;;5095587;28;20418;-52
2022/05/22 01:36:37;;;;;;;16.00;9.32;;;8.90;99.90;;;;;;5072010;28;20047;-53
2022/05/22 01:39:04;;;;;;;15.15;8.80;;;8.90;99.90;;;;;;5085037;28;20052;-50
2022/05/22 01:41:30;;;;;;;15.23;8.77;;;8.90;99.90;;;;;;5101002;28;20135;-51
2022/05/22 01:43:56;;;;;;;16.83;9.60;;;8.80;99.90;;;;;;5100499;28;20039;-54
2022/05/22 01:46:22;;;;;;;11.95;8.68;;;8.90;99.90;;;;;;5083954;28;20401;-48
2022/05/22 01:48:47;;;;;;;15.93;7.97;;;8.80;99.90;;;;;;5100876;28;20111;-53
2022/05/22 01:51:13;;;;;;;9.98;7.40;;;8.80;99.90;;;;;;5101103;27;20124;-54
2022/05/22 01:53:39;;;;;;;14.27;8.70;;;8.90;99.90;;;;;;5100120;28;20148;-52
2022/05/22 01:56:05;;;;;;;12.48;8.80;;;8.90;99.90;;;;;;5099953;28;20051;-54
2022/05/22 01:58:30;;;;;;;14.73;8.88;;;8.80;99.90;;;;;;5088213;28;20493;-52
2022/05/22 02:00:56;;;;;;;11.60;8.95;;;8.80;99.90;;;;;;5098428;28;20040;-52
2022/05/22 02:03:23;;;;;;;12.75;8.00;;;8.80;99.90;;;;;;5100549;28;20162;-51
2022/05/22 02:05:49;;;;;;;11.57;8.30;;;8.80;99.90;;;;;;5083186;28;20091;-45
2022/05/22 02:08:23;;;;;;;10.10;7.88;;;8.80;99.90;;;;;;5070140;28;20131;-54
2022/05/22 02:11:01;;;;;;;8.35;7.20;;;8.80;99.90;;;;;;5076068;28;20051;-52
2022/05/22 02:13:31;;;;;;;10.02;7.93;;;8.80;99.90;;;;;;5072383;28;20570;-53
2022/05/22 02:15:57;;;;;;;10.38;6.85;;;8.80;99.90;;;;;;5059667;28;20063;-53
2022/05/22 02:18:22;;;;;;;11.50;7.68;;;8.80;99.90;;;;;;5076438;28;20772;-53
2022/05/22 02:20:48;;;;;;;7.65;6.85;;;8.80;99.90;;;;;;5069212;28;20135;-52
2022/05/22 02:23:16;;;;;;;8.25;6.78;;;8.80;99.90;;;;;;5074554;28;20537;-53
2022/05/22 02:25:47;;;;;;;9.73;6.97;;;8.80;99.90;;;;;;5055235;28;20056;-51
2022/05/22 02:28:14;;;;;;;9.75;7.05;;;8.80;99.90;;;;;;5076740;28;20135;-52
2022/05/22 02:30:51;;;;;;;8.82;6.32;;;8.80;99.90;;;;;;5080166;28;20090;-50
2022/05/22 02:33:17;;;;;;;6.38;5.72;;;8.70;99.90;;;;;;5076739;28;20048;-52
2022/05/22 02:35:43;;;;;;;6.72;5.85;;;8.70;99.90;;;;;;5075949;28;20556;-52
2022/05/22 02:38:10;;;;;;;6.50;5.80;;;8.70;99.90;;;;;;5076337;28;20035;-53
2022/05/22 02:40:38;;;;;;;9.90;6.32;;;8.70;99.90;;;;;;5064558;28;20108;-52
2022/05/22 02:43:05;;;;;;;3.85;2.40;;;8.70;99.90;;;;;;5076359;28;20402;-50
2022/05/22 02:45:32;;;;;;;4.05;2.50;;;8.60;99.90;;;;;;5080186;28;20185;-51
2022/05/22 02:47:58;;;;;;;11.43;5.10;;;8.50;99.90;;;;;;5063111;28;20048;-49
2022/05/22 02:50:26;;;;;;;9.02;4.75;;;8.50;99.90;;;;;;5070016;28;20100;-49
2022/05/22 02:52:52;;;;;;;7.22;4.35;;;8.40;99.90;;;;;;5074704;28;20494;-49
2022/05/22 02:55:19;;;;;;;6.28;4.45;;;8.40;99.90;;;;;;5070786;28;20117;-50
2022/05/22 02:57:45;;;;;;;3.83;2.88;;;8.30;99.90;;;;;;5076856;28;20040;-53
2022/05/22 03:00:18;;;;;;;2.85;2.42;;;8.30;99.90;;;;;;5080880;28;20044;-53
2022/05/22 03:02:49;;;;;;;3.50;2.70;;;8.30;99.90;;;;;;5083408;28;20092;-51
2022/05/22 03:05:15;;;;;;;3.75;3.40;;;8.20;99.90;;;;;;5094551;27;20472;-49
2022/05/22 03:07:41;;;;;;;5.22;3.92;;;8.20;99.90;;;;;;5079458;27;20066;-54
2022/05/22 03:10:10;;;;;;;6.82;3.95;;;8.20;99.90;;;;;;5066881;28;20090;-54
2022/05/22 03:12:36;;;;;;;6.55;5.22;;;8.10;99.90;;;;;;5107779;27;20071;-51
2022/05/22 03:15:06;;;;;;;4.53;4.13;;;8.10;99.90;;;;;;5104236;27;20361;-51
2022/05/22 03:17:32;;;;;;;5.70;5.13;;;8.10;99.90;;;;;;5109926;27;20126;-51
2022/05/22 03:19:57;;;;;;;6.50;4.97;;;8.10;99.90;;;;;;5081420;28;20614;-51
2022/05/22 03:22:24;;;;;;;9.93;6.38;;;8.10;99.90;;;;;;5108546;27;20496;-52
2022/05/22 03:24:50;;;;;;;7.28;5.75;;;8.10;99.90;;;;;;5110953;27;20088;-53
2022/05/22 03:27:17;;;;;;;5.75;4.85;;;8.20;99.90;;;;;;5110261;27;20066;-50
2022/05/22 03:29:44;;;;;;;8.20;4.95;;;8.20;99.90;;;;;;5096734;27;20051;-56
2022/05/22 03:32:14;;;;;;;8.45;5.32;;;8.20;99.90;;;;;;5088805;27;20134;-54
2022/05/22 03:34:40;;;;;;;5.45;4.28;;;8.10;99.90;;;;;;5093993;28;20063;-55
2022/05/22 03:37:06;;;;;;;8.70;5.38;;;8.10;99.90;;;;;;5088856;27;20050;-55
2022/05/22 03:39:32;;;;;;;6.95;5.53;;;8.20;99.90;;;;;;5105535;27;20043;-50
2022/05/22 03:41:58;;;;;;;7.82;5.10;;;8.20;99.90;;;;;;5101131;27;20150;-50
2022/05/22 03:44:25;;;;;;;7.05;5.70;;;8.20;99.90;;;;;;5088288;28;20411;-54
2022/05/22 03:46:50;;;;;;;6.10;4.88;;;8.30;99.90;;;;;;5081531;27;20203;-53
2022/05/22 03:49:16;;;;;;;5.97;5.30;;;8.30;99.90;;;;;;5102323;27;20093;-53
2022/05/22 03:51:42;;;;;;;7.43;5.32;;;8.40;99.90;;;;;;5085384;28;20165;-53
2022/05/22 03:54:09;;;;;;;7.93;5.22;;;8.40;99.90;;;;;;5104136;28;20412;-42
2022/05/22 03:56:35;;;;;;;6.47;5.78;;;8.40;99.90;;;;;;5084800;28;20502;-52
2022/05/22 03:59:02;;;;;;;6.25;5.15;;;8.40;99.90;;;;;;5084017;28;20576;-50
2022/05/22 04:01:29;;;;;;;8.23;5.57;;;8.40;99.90;;;;;;5103143;28;20528;-48
2022/05/22 04:03:56;;;;;;;8.60;6.38;;;8.50;99.90;;;;;;5104234;28;20481;-50
2022/05/22 04:06:22;;;;;;;11.25;6.00;;;8.60;99.90;;;;;;5103418;27;20067;-55
2022/05/22 04:08:48;;;;;;;7.07;6.38;;;8.70;99.90;;;;;;5079768;28;20123;-54
2022/05/22 04:11:19;;;;;;;6.95;6.20;;;8.90;99.90;;;;;;5105876;27;20043;-51
2022/05/22 04:13:46;;;;;;;7.55;6.50;;;9.00;99.90;;;;;;5096436;27;20047;-52
2022/05/22 04:16:12;;;;;;;7.28;6.13;;;9.20;99.90;;;;;;5102635;27;20089;-50
2022/05/22 04:18:41;;;;;;;10.57;6.20;;;9.40;99.90;;;;;;5106749;27;20048;-48
2022/05/22 04:21:08;;;;;;;6.47;5.88;;;9.60;99.90;;;;;;5109592;27;20505;-50
2022/05/22 04:26:18;;;;;;;6.18;5.57;;;10.20;99.90;;;;;;5103405;27;20421;-50
2022/05/22 04:28:44;;;;;;;6.00;5.45;;;10.50;99.90;;;;;;5080913;28;20062;-51
2022/05/22 04:31:10;;;;;;;12.02;6.22;;;10.80;99.90;;;;;;5084591;28;20135;-52
2022/05/22 04:33:35;;;;;;;6.60;5.72;;;10.80;99.90;;;;;;5102123;28;20051;-53
2022/05/22 04:36:01;;;;;;;7.53;6.03;;;10.80;99.90;;;;;;5103943;27;20116;-52
2022/05/22 04:38:27;;;;;;;5.70;5.20;;;10.90;99.90;;;;;;5086311;28;20460;-50
2022/05/22 04:40:59;;;;;;;6.53;6.00;;;11.00;99.90;;;;;;5085994;28;20062;-53
2022/05/22 04:43:26;;;;;;;5.82;5.32;;;11.40;99.90;;;;;;5103826;28;20044;-53
2022/05/22 04:45:52;;;;;;;6.05;5.45;;;11.80;99.90;;;;;;5085569;28;20130;-53
2022/05/22 04:48:19;;;;;;;6.20;5.70;;;12.00;99.90;;;;;;5105567;28;20043;-50
2022/05/22 04:50:49;;;;;;;5.82;5.32;;;12.40;99.90;;;;;;5105608;28;20054;-56
2022/05/22 04:53:17;;;;;;;6.45;5.80;;;13.00;99.90;;;;;;5103647;28;20051;-56
2022/05/22 04:55:43;;;;;;;5.78;5.28;;;13.50;99.90;;;;;;5102932;28;20055;-52
2022/05/22 04:58:09;;;;;;;6.25;5.75;;;13.80;99.90;;;;;;5103532;28;20058;-51
2022/05/22 05:00:35;;;;;;;5.85;5.35;;;14.30;99.90;;;;;;5103602;28;20126;-52
2022/05/22 05:03:01;;;;;;;6.40;5.65;;;14.80;99.90;;;;;;5103383;28;20054;-51
2022/05/22 05:05:28;;;;;;;6.43;5.55;;;15.50;99.90;;;;;;5093378;28;20099;-49
2022/05/22 05:07:53;;;;;;;6.30;5.65;;;16.00;99.90;;;;;;5092249;28;20048;-53
2022/05/22 05:10:20;;;;;;;6.55;5.40;;;16.50;99.90;;;;;;5100949;28;20040;-52
2022/05/22 05:12:46;;;;;;;6.13;5.15;;;17.10;99.90;;;;;;5101562;27;20158;-48
2022/05/22 05:15:15;;;;;;;5.93;5.43;;;17.60;99.90;;;;;;5103108;28;20074;-51
2022/05/22 05:17:42;;;;;;;6.03;5.43;;;18.10;99.90;;;;;;5102852;28;20051;-54
2022/05/22 05:20:10;;;;;;;5.43;4.93;;;18.50;99.90;;;;;;5102855;28;20486;-47
2022/05/22 05:22:37;;;;;;;7.07;5.50;;;18.90;99.90;;;;;;5102746;28;20142;-48
2022/05/22 05:25:04;;;;;;;5.72;5.10;;;19.30;99.90;;;;;;5098882;28;20449;-50
2022/05/22 05:27:29;;;;;;;6.85;4.93;;;19.60;99.90;;;;;;5100932;28;20039;-52
2022/05/22 05:29:55;;;;;;;6.50;4.78;;;19.90;99.90;;;;;;5101658;28;20466;-53
2022/05/22 05:32:22;;;;;;;6.10;5.50;;;20.20;99.90;;;;;;5100491;28;20502;-53
2022/05/22 05:34:55;;;;;;;6.38;5.32;;;20.50;99.90;;;;;;5100949;28;20044;-55
2022/05/22 05:37:22;;;;;;;9.40;6.80;;;20.70;99.90;;;;;;5100631;28;20497;-52
2022/05/22 05:39:47;;;;;;;7.05;6.28;;;21.20;99.90;;;;;;5101852;28;20545;-52
2022/05/22 05:42:13;;;;;;;8.63;5.85;;;21.60;99.90;;;;;;5091189;28;20441;-53
2022/05/22 05:44:39;;;;;;;6.95;5.97;;;21.90;99.90;;;;;;5101030;28;20508;-53
2022/05/22 05:47:04;;;;;;;7.38;6.13;;;22.30;99.90;;;;;;5099886;28;20430;-55
2022/05/22 05:49:33;;;;;;;11.20;6.05;;;22.50;99.90;;;;;;5100955;28;20055;-52
2022/05/22 05:52:01;;;;;;;7.70;5.57;;;22.80;99.90;;;;;;5095127;28;20047;-53
2022/05/22 05:54:26;;;;;;;10.45;5.90;;;23.00;99.90;;;;;;5101944;28;20083;-51
2022/05/22 05:56:52;;;;;;;9.38;6.70;;;23.10;99.70;;;;;;5100201;28;20147;-55
2022/05/22 05:59:18;;;;;;;7.72;5.60;;;23.30;99.40;;;;;;5102346;28;20087;-53
2022/05/22 06:01:43;;;;;;;9.38;5.82;;;23.60;99.00;;;;;;5101373;28;20047;-50
2022/05/22 06:04:09;;;;;;;8.88;6.55;;;23.70;98.40;;;;;;5090257;28;20489;-54
2022/05/22 06:06:35;;;;;;;8.85;5.90;;;23.90;98.40;;;;;;5078140;28;20044;-54
2022/05/22 06:09:01;;;;;;;7.60;6.70;;;24.30;98.30;;;;;;5088582;28;20052;-55
2022/05/22 06:11:26;;;;;;;8.52;6.70;;;24.40;98.30;;;;;;5079086;28;20131;-45
2022/05/22 06:13:52;;;;;;;15.43;5.93;;;24.50;97.20;;;;;;5080104;28;20189;-52
2022/05/22 06:16:18;;;;;;;9.02;5.22;;;24.90;97.60;;;;;;5080348;28;20043;-54
2022/05/22 06:18:44;;;;;;;7.40;4.78;;;25.20;96.70;;;;;;5079779;28;20570;-55
2022/05/22 06:21:15;;;;;;;9.38;5.80;;;25.20;95.90;;;;;;5073276;28;20060;-54
2022/05/22 06:23:41;;;;;;;10.73;5.60;;;25.20;95.00;;;;;;5082122;28;20498;-54
2022/05/22 06:26:09;;;;;;;8.13;5.18;;;25.30;95.40;;;;;;5095501;28;20044;-52
2022/05/22 06:28:35;;;;;;;10.23;5.40;;;25.60;95.20;;;;;;5081748;28;20379;-54
2022/05/22 06:31:01;;;;;;;9.30;5.15;;;25.70;95.40;;;;;;5094228;28;20048;-55
2022/05/22 06:33:29;;;;;;;7.47;5.03;;;25.90;94.80;;;;;;5094409;28;20090;-54
2022/05/22 06:35:56;;;;;;;9.48;4.13;;;26.00;94.30;;;;;;5087689;28;20452;-55
2022/05/22 06:41:09;;;;;;;9.27;4.60;;;25.80;94.20;;;;;;5089829;28;20052;-49
2022/05/22 06:43:35;;;;;;;7.25;4.72;;;25.80;94.30;;;;;;5102229;27;20048;-51
2022/05/22 06:46:03;;;;;;;7.43;4.55;;;25.70;94.20;;;;;;5082191;28;20461;-51
2022/05/22 06:48:29;;;;;;;8.75;5.30;;;25.90;94.50;;;;;;5084933;28;20181;-49
2022/05/22 06:50:55;;;;;;;8.02;4.38;;;26.20;94.10;;;;;;5086189;28;20048;-52
2022/05/22 06:53:21;;;;;;;9.32;4.60;;;26.40;94.10;;;;;;5083288;28;20124;-55
2022/05/22 06:55:48;;;;;;;9.40;4.75;;;26.50;93.90;;;;;;5077537;28;20053;-54
2022/05/22 06:58:14;;;;;;;9.95;4.70;;;26.50;93.10;;;;;;5100877;28;20055;-53
2022/05/22 07:00:40;;;;;;;9.90;4.80;;;26.30;92.80;;;;;;5088264;28;20112;-53
2022/05/22 07:03:05;;;;;;;10.80;4.32;;;26.70;93.40;;;;;;5090654;28;20138;-53
2022/05/22 07:05:31;;;;;;;9.52;4.93;;;26.70;93.40;;;;;;5094632;28;20091;-55
2022/05/22 07:07:58;;;;;;;8.65;4.20;;;26.60;93.20;;;;;;5076071;28;20052;-55
2022/05/22 07:11:38;;;;;;;7.10;4.05;;;26.30;92.20;;;;;;5095246;28;20162;-55
2022/05/22 07:13:16;;;;;;;9.07;4.22;;;26.20;92.70;;;;;;5093636;28;20128;-50
2022/05/22 07:15:42;;;;;;;8.38;4.32;;;25.60;93.30;;;;;;5080092;28;20051;-53
2022/05/22 07:18:08;;;;;;;11.15;4.63;;;24.50;94.00;;;;;;5084227;28;20083;-47
2022/05/22 07:20:33;;;;;;;10.50;4.20;;;24.10;95.20;;;;;;5098361;28;20055;-52
2022/05/22 07:22:59;;;;;;;8.45;3.80;;;23.60;95.30;;;;;;5098117;28;20052;-51
2022/05/22 07:25:26;;;;;;;9.90;4.20;;;23.00;95.60;;;;;;5091474;28;20083;-54
2022/05/22 07:27:53;;;;;;;13.60;4.68;;;22.80;96.60;;;;;;5082028;28;20670;-50
2022/05/22 07:30:18;;;;;;;7.10;4.03;;;22.60;97.00;;;;;;5086560;28;20044;-51
2022/05/22 07:32:44;;;;;;;11.82;4.43;;;22.50;97.30;;;;;;5086248;28;20187;-50
2022/05/22 07:35:10;;;;;;;11.15;4.63;;;22.50;97.60;;;;;;5088911;28;20055;-51
2022/05/22 07:37:36;;;;;;;10.57;4.70;;;22.40;97.90;;;;;;5082771;28;20502;-51
2022/05/22 07:40:03;;;;;;;8.38;4.80;;;22.20;97.80;;;;;;5082674;28;20052;-50
2022/05/22 07:42:29;;;;;;;10.32;4.45;;;22.20;98.30;;;;;;5086865;28;20039;-51
2022/05/22 07:44:54;;;;;;;10.27;4.35;;;22.00;98.60;;;;;;5092552;28;20051;-50
2022/05/22 07:47:20;;;;;;;11.10;4.80;;;21.90;98.90;;;;;;5088488;28;20055;-52
2022/05/22 07:52:30;;;;;;;11.38;4.80;;;21.90;98.30;;;;;;5083385;28;20516;-50
2022/05/22 07:54:56;;;;;;;10.60;4.78;;;22.10;98.20;;;;;;5084326;28;20054;-52
2022/05/22 07:57:22;;;;;;;9.30;4.28;;;21.90;98.80;;;;;;5098745;28;20363;-49
2022/05/22 07:59:49;;;;;;;9.43;3.75;;;22.00;99.50;;;;;;5086825;28;20055;-51
2022/05/22 08:02:15;;;;;;;10.10;3.72;;;21.90;98.30;;;;;;5082023;28;20593;-52
2022/05/22 08:04:42;;;;;;;15.25;4.57;;;21.90;97.50;;;;;;5093180;28;20113;-49
2022/05/22 08:07:10;;;;;;;10.52;3.80;;;22.00;98.50;;;;;;5080942;28;20051;-45
2022/05/22 08:09:36;;;;;;;9.93;3.05;;;22.10;97.10;;;;;;5086476;28;20044;-52
2022/05/22 08:12:03;;;;;;;11.32;4.07;;;21.90;96.20;;;;;;5096490;28;20574;-52
2022/05/22 08:14:29;;;;;;;9.98;3.65;;;21.70;97.60;;;;;;5084082;28;20055;-51
2022/05/22 08:16:54;;;;;;;9.43;3.88;;;21.80;98.90;;;;;;5096133;28;20502;-54
2022/05/22 08:19:21;;;;;;;7.80;3.55;;;21.80;97.80;;;;;;5095446;28;20562;-51
2022/05/22 08:21:46;;;;;;;8.75;3.67;;;21.70;98.20;;;;;;5087470;28;20154;-52
2022/05/22 08:24:12;;;;;;;10.75;3.28;;;21.50;97.70;;;;;;5084510;28;20062;-47
2022/05/22 08:26:38;;;;;;;8.98;3.42;;;21.70;98.20;;;;;;5084650;28;20108;-43
2022/05/22 08:29:05;;;;;;;9.88;3.85;;;21.70;98.50;;;;;;5074627;28;20099;-49
2022/05/22 08:31:31;;;;;;;8.07;3.63;;;22.00;98.40;;;;;;5080944;28;20059;-43
2022/05/22 08:33:56;;;;;;;8.15;4.28;;;22.10;98.30;;;;;;5081521;28;20056;-53
2022/05/22 08:36:22;;;;;;;9.13;3.88;;;22.20;97.90;;;;;;5078402;28;20055;-52
2022/05/22 08:38:48;;;;;;;10.25;4.82;;;22.40;98.30;;;;;;5086711;28;20117;-50
2022/05/22 08:41:29;;;;;;;9.30;4.20;;;22.40;97.00;;;;;;5093434;28;20048;-51
2022/05/22 08:44:14;;;;;;;16.15;5.57;;;22.40;96.90;;;;;;5083269;28;20522;-50
2022/05/22 08:47:03;;;;;;;9.50;4.65;;;22.10;97.50;;;;;;5082673;28;20051;-50
2022/05/22 08:49:41;;;;;;;12.75;4.45;;;21.90;98.10;;;;;;5082278;28;20044;-50
2022/05/22 08:52:20;;;;;;;8.60;3.60;;;21.90;97.70;;;;;;5080573;28;20063;-51
2022/05/22 08:54:54;;;;;;;9.50;3.80;;;22.00;97.50;;;;;;5074949;28;20498;-50
2022/05/22 09:00:12;;;;;;;8.02;3.72;;;21.50;97.50;;;;;;5082385;28;20139;-53
2022/05/22 09:02:57;;;;;;;11.15;3.88;;;21.40;98.60;;;;;;5080003;28;20101;-51
2022/05/22 09:05:25;;;;;;;13.25;3.95;;;21.70;98.10;;;;;;5081443;28;20091;-52
2022/05/22 09:08:06;;;;;;;13.52;3.97;;;21.80;98.50;;;;;;5052851;28;20591;-49
2022/05/22 09:10:57;;;;;;;12.32;4.00;;;22.10;98.90;;;;;;5081716;28;20180;-52
2022/05/22 09:13:31;;;;;;;13.85;4.25;;;22.10;96.80;;;;;;5080542;28;20091;-52
2022/05/22 09:16:18;;;;;;;8.55;3.60;;;21.90;97.00;;;;;;5081161;28;20413;-53
2022/05/22 09:18:50;;;;;;;10.15;3.95;;;21.90;97.60;;;;;;5049257;28;20067;-50
2022/05/22 09:21:31;;;;;;;10.90;4.10;;;22.00;97.80;;;;;;5081542;28;20044;-50
2022/05/22 09:24:17;;;;;;;11.35;4.00;;;21.90;97.60;;;;;;5081227;28;20596;-50
2022/05/22 09:27:08;;;;;;;12.75;4.30;;;21.80;97.10;;;;;;5065435;28;20052;-53
2022/05/22 09:30:06;;;;;;;10.25;3.88;;;21.70;97.30;;;;;;5066947;28;20540;-52
2022/05/22 09:32:50;;;;;;;13.32;3.45;;;21.80;97.60;;;;;;4985362;28;20064;-53
2022/05/22 09:35:54;;;;;;;7.70;3.50;;;21.90;97.90;;;;;;4960944;28;20480;-53
2022/05/22 09:38:45;;;;;;;11.43;3.72;;;22.10;97.10;;;;;;4971240;28;20050;-49
2022/05/22 09:41:41;;;;;;;8.02;3.63;;;22.00;96.80;;;;;;4980811;28;20140;-51
2022/05/22 09:44:27;;;;;;;8.02;3.20;;;21.90;96.20;;;;;;4987556;28;20180;-52
2022/05/22 09:47:30;;;;;;;10.35;3.40;;;22.00;96.60;;;;;;4967455;28;20054;-51
2022/05/22 09:50:12;;;;;;;8.57;3.63;;;21.90;97.30;;;;;;4975809;28;20128;-52
2022/05/22 09:53:00;;;;;;;6.07;2.55;;;22.10;96.60;;;;;;4975061;28;20054;-47
2022/05/22 09:55:52;;;;;;;8.63;3.42;;;22.10;95.80;;;;;;4999160;28;20062;-54
2022/05/22 09:58:36;;;;;;;8.10;3.50;;;22.30;96.40;;;;;;4912764;29;20210;-53
2022/05/22 10:01:10;;;;;;;11.30;3.20;;;22.40;95.90;;;;;;4908075;29;20648;-53
2022/05/22 10:03:48;;;;;;;10.60;3.72;;;22.70;96.00;;;;;;4896599;29;20067;-52
2022/05/22 10:06:41;;;;;;;9.25;2.92;;;22.60;96.00;;;;;;4911432;29;20055;-42
2022/05/22 10:09:28;;;;;;;7.72;2.90;;;22.50;94.60;;;;;;4986792;28;20057;-48
2022/05/22 10:12:08;;;;;;;8.43;3.13;;;22.40;94.40;;;;;;4997111;28;20064;-48
2022/05/22 10:14:39;;;;;;;7.82;2.58;;;22.10;94.20;;;;;;5002923;28;20061;-50
2022/05/22 10:17:10;;;;;;;6.13;2.83;;;22.00;93.90;;;;;;4982515;28;20160;-54
2022/05/22 10:20:00;;;;;;;8.32;3.08;;;22.10;93.80;;;;;;4988821;28;20061;-52
2022/05/22 10:22:45;;;;;;;6.03;3.13;;;22.00;94.00;;;;;;4945495;28;20540;-52
2022/05/22 10:25:31;;;;;;;9.00;2.80;;;21.80;95.10;;;;;;4955902;28;20158;-53
2022/05/22 10:28:09;;;;;;;7.43;2.83;;;21.70;94.40;;;;;;4930027;28;20466;-54
2022/05/22 10:30:52;;;;;;;9.63;3.22;;;21.70;95.70;;;;;;4929557;28;20546;-52
2022/05/22 10:33:35;;;;;;;9.32;2.83;;;21.90;96.10;;;;;;4927752;29;20059;-52
2022/05/22 10:36:18;;;;;;;9.52;3.40;;;22.10;96.30;;;;;;5005733;28;20130;-54
2022/05/22 10:38:50;;;;;;;7.68;2.83;;;22.50;96.60;;;;;;5002116;28;20060;-52
2022/05/22 10:44:16;;;;;;;9.65;3.22;;;22.50;94.70;;;;;;5020766;28;20061;-48
2022/05/22 10:47:09;;;;;;;7.50;3.15;;;22.20;93.20;;;;;;5016180;28;20417;-53
2022/05/22 10:49:45;;;;;;;6.28;2.75;;;22.20;94.00;;;;;;5020021;28;20068;-54
2022/05/22 10:52:14;;;;;;;5.65;2.20;;;22.50;95.40;;;;;;5003689;28;20140;-49
2022/05/22 10:54:47;;;;;;;8.05;2.95;;;22.70;94.80;;;;;;5017138;28;20447;-51
2022/05/22 10:57:23;;;;;;;7.18;2.90;;;22.90;94.10;;;;;;5016712;28;20115;-53
2022/05/22 11:00:09;;;;;;;6.53;2.70;;;22.90;93.10;;;;;;5053082;28;20060;-54
2022/05/22 11:02:49;;;;;;;7.53;2.70;;;22.80;92.70;;;;;;5062112;28;20055;-54
2022/05/22 11:05:20;;;;;;;;;;;22.90;94.10;;;;;;5066492;28;20052;-52
2022/05/22 11:07:49;;;;;;;7.80;2.60;;;22.90;95.80;;;;;;5064849;28;20379;-54
2022/05/22 11:10:20;;;;;;;6.57;2.42;;;23.00;92.90;;;;;;5051493;28;20129;-54
2022/05/22 11:12:58;;;;;;;7.67;2.90;;;23.30;93.30;;;;;;5080802;28;20055;-49
2022/05/22 11:15:33;;;;;;;6.68;2.67;;;23.30;92.90;;;;;;5062087;28;20063;-52
2022/05/22 11:18:23;;;;;;;5.85;2.38;;;23.20;91.00;;;;;;5061141;28;20113;-55
2022/05/22 11:21:24;;;;;;;4.65;1.83;;;23.20;93.00;;;;;;5084673;28;20055;-55
2022/05/22 11:24:22;;;;;;;5.60;2.15;;;22.90;92.20;;;;;;4979431;28;20062;-56
2022/05/22 11:27:41;;;;;;;6.03;2.25;;;22.90;92.90;;;;;;4911606;29;20173;-56
2022/05/22 11:30:34;;;;;;;7.40;2.28;;;22.70;91.50;;;;;;4841640;29;20069;-57
2022/05/22 11:33:15;;;;;;;7.25;2.35;;;22.60;91.30;;;;;;4863951;29;20048;-57
2022/05/22 11:36:06;;;;;;;6.88;2.25;;;22.60;93.10;;;;;;4859911;29;20611;-54
2022/05/22 11:38:51;;;;;;;7.78;2.45;;;22.80;94.20;;;;;;4847277;29;20364;-50
2022/05/22 11:41:20;;;;;;;7.35;2.58;;;22.90;93.30;;;;;;4859014;29;20061;-52
2022/05/22 11:43:54;;;;;;;6.80;2.63;;;22.90;93.60;;;;;;4854852;29;20630;-55
2022/05/22 11:46:49;;;;;;;8.45;2.30;;;22.90;94.10;;;;;;4850013;29;20056;-55
2022/05/22 11:49:45;;;;;;;6.78;2.38;;;23.10;93.60;;;;;;4841723;29;20056;-56
2022/05/22 11:55:29;;;;;;;5.88;2.35;;;22.90;91.80;;;;;;4864120;29;20056;-55
2022/05/22 11:58:06;;;;;;;6.22;2.10;;;22.70;93.80;;;;;;4845826;29;20107;-57
2022/05/22 12:00:40;;;;;;;6.15;2.08;;;22.80;93.70;;;;;;4875550;29;20063;-55
2022/05/22 12:03:34;;;;;;;5.80;2.55;;;22.90;92.10;;;;;;4985879;28;20383;-57
2022/05/22 12:06:24;;;;;;;9.27;2.45;;;22.90;93.70;;;;;;5080488;28;20056;-58
2022/05/22 12:09:07;;;;;;;9.20;2.40;;;22.70;92.40;;;;;;5073046;28;20514;-55
2022/05/22 12:11:41;;;;;;;7.80;2.72;;;22.80;94.60;;;;;;5083356;28;20058;-55
2022/05/22 12:14:26;;;;;;;9.35;2.35;;;22.80;93.60;;;;;;5065136;28;20048;-54
2022/05/22 12:17:02;;;;;;;6.03;2.85;;;22.90;91.90;;;;;;5082292;28;20060;-54
2022/05/22 12:19:52;;;;;;;7.95;2.63;;;22.90;92.90;;;;;;5064306;28;20508;-51
2022/05/22 12:22:21;;;;;;;8.40;2.17;;;22.80;92.30;;;;;;5064378;28;20060;-56
2022/05/22 12:24:56;;;;;;;4.80;1.83;;;22.90;92.10;;;;;;5063494;28;20047;-54
2022/05/22 12:27:27;;;;;;;5.72;2.17;;;23.00;93.10;;;;;;5081344;28;20469;-58
2022/05/22 12:30:08;;;;;;;6.63;2.30;;;23.20;91.70;;;;;;5083099;28;20131;-54
2022/05/22 12:33:10;;;;;;;6.03;2.22;;;23.20;91.60;;;;;;5081963;28;20091;-54
2022/05/22 12:35:37;;;;;;;12.52;2.22;;;23.20;91.90;;;;;;5098226;28;20138;-56
2022/05/22 12:38:10;;;;;;;6.55;2.38;;;23.00;91.10;;;;;;5102993;28;20055;-56
2022/05/22 12:41:03;;;;;;;6.78;2.60;;;23.00;92.40;;;;;;5101358;28;20059;-53
2022/05/22 12:43:30;;;;;;;4.00;1.67;;;22.90;90.90;;;;;;5103813;27;20053;-55
2022/05/22 12:46:04;;;;;;;5.10;1.60;;;22.80;91.50;;;;;;5101605;28;20502;-57
2022/05/22 12:48:33;;;;;;;6.25;1.95;;;22.80;92.40;;;;;;5096303;27;20052;-57
2022/05/22 12:51:08;;;;;;;8.13;2.35;;;22.80;91.20;;;;;;5097901;27;20513;-55
2022/05/22 12:53:35;;;;;;;4.22;2.08;;;22.90;90.60;;;;;;5079124;28;20062;-57
2022/05/22 12:56:23;;;;;;;6.07;1.90;;;22.70;92.80;;;;;;5099304;28;20406;-57
2022/05/22 12:59:02;;;;;;;3.63;1.67;;;22.90;91.20;;;;;;5100605;28;20051;-55
2022/05/22 13:01:39;;;;;;;4.13;1.77;;;22.80;92.90;;;;;;5091388;28;20129;-55
2022/05/22 13:04:23;;;;;;;5.25;1.50;;;22.90;92.90;;;;;;5098786;28;20047;-55
2022/05/22 13:07:07;;;;;;;7.78;2.33;;;22.90;91.30;;;;;;5095638;27;20047;-56
2022/05/22 13:09:46;;;;;;;3.40;1.42;;;22.80;90.60;;;;;;5096829;27;20052;-56
2022/05/22 13:12:18;;;;;;;5.13;1.90;;;22.90;88.10;;;;;;5095226;28;20039;-57
2022/05/22 13:15:09;;;;;;;4.60;1.80;;;22.90;90.00;;;;;;5099135;28;20391;-56
2022/05/22 13:17:37;;;;;;;6.72;2.42;;;22.70;91.90;;;;;;5096388;28;20051;-54
2022/05/22 13:20:27;;;;;;;5.43;1.70;;;22.50;90.90;;;;;;5092989;28;20058;-54
2022/05/22 13:23:05;;;;;;;6.45;1.80;;;22.50;91.10;;;;;;5080940;28;20060;-51
2022/05/22 13:25:43;;;;;;;10.02;3.80;;;22.40;91.90;;;;;;5089771;28;20048;-56
2022/05/22 13:28:24;;;;;;;5.20;1.90;;;22.50;90.70;;;;;;5092475;28;20062;-50